createdAt,value
2018-03-29T00:06:45.744Z,4.0
2018-03-29T00:17:31.385Z,4.0
2018-03-29T00:27:42.851Z,4.0
2018-03-29T00:37:56.775Z,4.0
2018-03-29T00:48:10.798Z,3.9
2018-03-29T00:58:22.481Z,3.9
2018-03-29T01:08:37.616Z,3.9
2018-03-29T01:18:48.810Z,3.9
2018-03-29T01:29:33.767Z,3.9
2018-03-29T01:39:48.189Z,3.9
2018-03-29T01:50:02.661Z,3.9
2018-03-29T02:00:16.402Z,3.9
2018-03-29T02:10:30.695Z,3.9
2018-03-29T02:20:44.966Z,3.8
2018-03-29T02:30:59.138Z,3.8
2018-03-29T02:41:10.415Z,3.8
2018-03-29T02:51:24.532Z,3.7
2018-03-29T03:01:36.259Z,3.7
2018-03-29T03:11:55.538Z,3.7
2018-03-29T03:22:09.588Z,3.7
2018-03-29T03:32:54.983Z,3.7
2018-03-29T03:43:08.653Z,3.7
2018-03-29T03:53:22.642Z,3.7
2018-03-29T04:04:07.147Z,3.7
2018-03-29T04:14:20.587Z,3.7
2018-03-29T04:24:34.128Z,3.7
2018-03-29T04:34:48.526Z,3.7
2018-03-29T04:45:14.223Z,3.7
2018-03-29T04:55:27.855Z,3.7
2018-03-29T05:05:39.145Z,3.7
2018-03-29T05:15:53.783Z,3.7
2018-03-29T05:26:39.219Z,3.7
2018-03-29T05:36:53.755Z,3.7
2018-03-29T05:47:07.979Z,3.8
2018-03-29T05:57:54.495Z,3.8
2018-03-29T06:08:08.548Z,3.8
2018-03-29T06:18:22.083Z,3.8
2018-03-29T06:29:07.387Z,4.0
2018-03-29T06:39:21.118Z,4.0
2018-03-29T06:49:32.750Z,4.0
2018-03-29T06:59:46.657Z,4.1
2018-03-29T07:10:01.115Z,4.2
2018-03-29T07:20:46.203Z,4.5
2018-03-29T07:30:57.887Z,4.6
2018-03-29T07:41:09.251Z,4.9
2018-03-29T07:51:23.092Z,5.1
2018-03-29T08:02:08.072Z,5.5
2018-03-29T08:12:22.657Z,5.5
2018-03-29T08:23:08.253Z,6.5
2018-03-29T08:33:53.685Z,7.2
2018-03-29T08:44:38.282Z,7.4
2018-03-29T08:55:02.969Z,7.4
2018-03-29T09:05:16.675Z,7.4
2018-03-29T09:16:02.486Z,7.5
2018-03-29T09:27:08.641Z,7.8
2018-03-29T09:38:07.053Z,8.7
2018-03-29T09:48:34.033Z,8.7
2018-03-29T10:09:03.916Z,10.6
2018-03-29T10:19:18.481Z,11.2
2018-03-29T10:30:29.279Z,12.2
2018-03-29T10:41:14.668Z,13.0
2018-03-29T10:52:03.277Z,13.6
2018-03-29T11:02:17.004Z,13.6
2018-03-29T11:23:11.603Z,14.4
2018-03-29T11:33:37.711Z,14.4
2018-03-29T11:44:01.786Z,14.1
2018-03-29T11:54:58.765Z,13.5
2018-03-29T12:15:43.527Z,13.6
2018-03-29T12:26:35.189Z,13.8
2018-03-29T12:36:58.742Z,14.4
2018-03-29T12:47:28.237Z,14.9
2018-03-29T12:58:21.505Z,15.4
2018-03-29T13:19:04.595Z,15.4
2018-03-29T13:50:28.722Z,15.7
2018-03-29T14:00:40.153Z,16.0
2018-03-29T14:10:54.052Z,16.1
2018-03-29T14:21:05.803Z,16.0
2018-03-29T14:31:17.945Z,15.9
2018-03-29T14:41:32.057Z,15.8
2018-03-29T15:02:02.578Z,15.2
2018-03-29T15:12:13.482Z,15.0
2018-03-29T15:22:30.515Z,15.2
2018-03-29T15:32:47.582Z,15.3
2018-03-29T15:43:06.814Z,15.4
2018-03-29T15:53:27.820Z,15.3
2018-03-29T16:14:02.915Z,14.7
2018-03-29T16:24:14.808Z,14.3
2018-03-29T16:34:28.952Z,14.0
2018-03-29T16:44:42.740Z,13.6
2018-03-29T16:54:56.009Z,13.2
2018-03-29T17:05:23.692Z,12.8
2018-03-29T17:15:37.526Z,12.3
2018-03-29T17:25:52.298Z,11.9
2018-03-29T17:36:07.662Z,11.4
2018-03-29T17:47:02.872Z,10.5
2018-03-29T17:57:18.923Z,10.5
2018-03-29T18:07:33.522Z,10.0
2018-03-29T18:18:23.032Z,9.0
2018-03-29T18:29:58.158Z,8.6
